EDSB/FKB METAR and TAF weather

Enter ICAO airport designator
Station Type Date Time Source
EDSB METAR 2019/08/22 02:20 UTC NOAA

EDSB 220220Z AUTO 03007KT 9999 NCD 12/10 Q1025


Station Type Date Time Source
EDSB Decoded METAR 2019/08/22 02:20 UTC NOAA

Station name not available
Aug 21, 2019 - 10:20 PM EDT / 2019.08.22 0220 UTC
Wind: from the NNE (030 degrees) at 8 MPH (7 KT):0
Visibility: greater than 7 mile(s):0
Temperature: 53 F (12 C)
Dew Point: 50 F (10 C)
Relative Humidity: 87%
Pressure (altimeter): 30.27 in. Hg (1025 hPa)
ob: EDSB 220220Z AUTO 03007KT 9999 NCD 12/10 Q1025
cycle: 2

Station Type Date Time Source
EDSB TAF 2019/08/21 22:19 UTC NOAA

TAF EDSB 212209Z 2122/2218 CNL

Example: see airport list